Time;durP1;ratioP1;P1;durP2;ratioP2;P2;SDS_P1;SDS_P2;PMS_P1;PMS_P2;Temp;Humidity;BMP_temperature;BMP_pressure;BME280_temperature;BME280_humidity;BME280_pressure;Samples;Min_cycle;Max_cycle;Signal;HPM_P1;HPM_P2
2022/10/17 00:01:03;;;;;;;;;15.00;14.00;;;;;-147.17;100.00;-15917.19;5012486;27;51867;-46
2022/10/17 00:03:28;;;;;;;;;13.00;12.33;;;;;-147.17;100.00;-15917.19;4998147;28;51246;-47
2022/10/17 00:05:54;;;;;;;;;14.33;13.67;;;;;-147.17;100.00;-15917.19;5002956;27;52107;-47
2022/10/17 00:08:19;;;;;;;;;13.33;13.33;;;;;-147.17;100.00;-15917.19;5008127;27;51413;-46
2022/10/17 00:10:53;;;;;;;;;13.67;12.67;;;;;-147.17;100.00;-15917.19;4988851;27;51893;-49
2022/10/17 00:13:18;;;;;;;;;10.33;10.33;;;;;-147.17;100.00;-15917.19;5068184;27;51357;-46
2022/10/17 00:15:44;;;;;;;;;15.67;14.00;;;;;-147.17;100.00;-15917.19;5037307;27;50972;-47
2022/10/17 00:18:09;;;;;;;;;14.33;13.67;;;;;-147.17;100.00;-15917.19;5052082;27;51223;-47
2022/10/17 00:20:35;;;;;;;;;14.33;12.33;;;;;-147.17;100.00;-15917.19;5032657;27;51156;-48
2022/10/17 00:23:00;;;;;;;;;12.67;12.33;;;;;-147.17;100.00;-15917.19;5018849;27;52080;-47
2022/10/17 00:25:26;;;;;;;;;14.33;14.00;;;;;-147.17;100.00;-15917.19;5061721;27;51122;-46
2022/10/17 00:27:51;;;;;;;;;13.00;12.00;;;;;-147.17;100.00;-15917.19;5055710;27;51474;-46
2022/10/17 00:30:16;;;;;;;;;12.00;12.00;;;;;-147.17;100.00;-15917.19;5012369;27;54392;-46
2022/10/17 00:32:42;;;;;;;;;13.33;13.33;;;;;-147.17;100.00;-15917.19;5043097;27;53033;-46
2022/10/17 00:35:07;;;;;;;;;11.67;11.00;;;;;-147.17;100.00;-15917.19;5013665;27;51081;-45
2022/10/17 00:37:33;;;;;;;;;14.00;12.67;;;;;-147.17;100.00;-15917.19;5059433;27;51124;-46
2022/10/17 00:39:59;;;;;;;;;11.67;11.67;;;;;-147.17;100.00;-15917.19;5040606;27;51241;-50
2022/10/17 00:42:25;;;;;;;;;11.67;11.67;;;;;-147.17;100.00;-15917.19;5029732;27;51466;-48
2022/10/17 00:45:00;;;;;;;;;12.67;12.67;;;;;-147.17;100.00;-15917.19;5064099;27;51242;-48
2022/10/17 00:47:25;;;;;;;;;12.67;12.00;;;;;-147.17;100.00;-15917.19;5033052;27;51260;-48
2022/10/17 00:49:51;;;;;;;;;14.33;13.00;;;;;-147.17;100.00;-15917.19;5016946;27;51692;-48
2022/10/17 00:52:24;;;;;;;;;12.00;12.00;;;;;-147.17;100.00;-15917.19;5006836;28;51177;-49
2022/10/17 00:55:00;;;;;;;;;12.33;11.00;;;;;-147.17;100.00;-15917.19;5010927;27;51590;-49
2022/10/17 00:57:28;;;;;;;;;13.33;13.00;;;;;-147.17;100.00;-15917.19;5025886;27;51156;-49
2022/10/17 00:59:56;;;;;;;;;12.33;11.67;;;;;-147.17;100.00;-15917.19;5005821;27;52029;-50
2022/10/17 01:02:23;;;;;;;;;13.33;13.33;;;;;-147.17;100.00;-15917.19;5005945;27;51126;-51
2022/10/17 01:04:53;;;;;;;;;11.67;11.33;;;;;-147.17;100.00;-15917.19;4993690;27;51000;-50
2022/10/17 01:07:19;;;;;;;;;13.67;13.00;;;;;-147.17;100.00;-15917.19;5005830;27;51333;-47
2022/10/17 01:09:46;;;;;;;;;12.00;9.00;;;;;-147.17;100.00;-15917.19;5006097;27;50996;-49
2022/10/17 01:12:19;;;;;;;;;10.00;9.67;;;;;-147.17;100.00;-15917.19;5069849;27;51144;-50
2022/10/17 01:14:56;;;;;;;;;12.00;12.00;;;;;-147.17;100.00;-15917.19;5008958;27;51332;-47
2022/10/17 01:18:14;;;;;;;;;6.33;6.33;;;;;-147.17;100.00;-15917.19;5004223;27;51534;-47
2022/10/17 01:21:10;;;;;;;;;11.00;11.00;;;;;-147.17;100.00;-15917.19;5047087;28;51896;-47
2022/10/17 01:24:09;;;;;;;;;10.67;10.67;;;;;-147.17;100.00;-15917.19;4991772;27;51122;-48
2022/10/17 01:26:37;;;;;;;;;14.00;11.67;;;;;-147.17;100.00;-15917.19;4999006;27;51018;-48
2022/10/17 01:29:29;;;;;;;;;10.33;10.33;;;;;-147.17;100.00;-15917.19;5005444;27;51098;-47
2022/10/17 01:32:08;;;;;;;;;8.67;8.67;;;;;-147.17;100.00;-15917.19;5053407;27;52753;-48
2022/10/17 01:35:04;;;;;;;;;13.33;13.00;;;;;-147.17;100.00;-15917.19;4996843;28;51061;-47
2022/10/17 01:37:36;;;;;;;;;11.67;11.67;;;;;-147.17;100.00;-15917.19;5002113;27;51156;-47
2022/10/17 01:40:41;;;;;;;;;11.67;11.00;;;;;-147.17;100.00;-15917.19;5001849;28;51282;-50
2022/10/17 01:43:12;;;;;;;;;13.33;12.33;;;;;-147.17;100.00;-15917.19;5042900;27;51859;-48
2022/10/17 01:45:50;;;;;;;;;8.67;7.67;;;;;-147.17;100.00;-15917.19;5004038;27;51093;-49
2022/10/17 01:48:27;;;;;;;;;11.00;11.00;;;;;-147.17;100.00;-15917.19;4994349;27;51293;-47
2022/10/17 01:51:00;;;;;;;;;10.00;9.67;;;;;-147.17;100.00;-15917.19;5001066;27;51309;-46
2022/10/17 01:53:31;;;;;;;;;10.33;10.33;;;;;-147.17;100.00;-15917.19;5004733;27;51957;-47
2022/10/17 01:55:59;;;;;;;;;9.67;9.67;;;;;-147.17;100.00;-15917.19;5009262;27;51038;-50
2022/10/17 01:58:30;;;;;;;;;10.67;9.67;;;;;-147.17;100.00;-15917.19;5000248;27;51141;-49
2022/10/17 02:01:00;;;;;;;;;7.00;6.67;;;;;-147.17;100.00;-15917.19;5007602;28;51290;-50
2022/10/17 02:03:27;;;;;;;;;9.33;9.33;;;;;-147.17;100.00;-15917.19;5004988;27;51998;-47
2022/10/17 02:05:53;;;;;;;;;7.33;7.00;;;;;-147.17;100.00;-15917.19;5010388;27;51178;-50
2022/10/17 02:08:26;;;;;;;;;8.67;8.67;;;;;-147.17;100.00;-15917.19;4998341;27;51285;-51
2022/10/17 02:11:02;;;;;;;;;9.00;9.00;;;;;-147.17;100.00;-15917.19;4997948;28;50915;-50
2022/10/17 02:13:45;;;;;;;;;10.00;8.00;;;;;-147.17;100.00;-15917.19;4998893;27;50979;-48
2022/10/17 02:16:34;;;;;;;;;10.00;9.00;;;;;-147.17;100.00;-15917.19;5008823;27;51171;-46
2022/10/17 02:19:08;;;;;;;;;9.67;8.67;;;;;-147.17;100.00;-15917.19;5012713;27;51165;-47
2022/10/17 02:21:44;;;;;;;;;8.67;8.67;;;;;-147.17;100.00;-15917.19;5026289;27;51035;-47
2022/10/17 02:24:40;;;;;;;;;11.67;10.00;;;;;-147.17;100.00;-15917.19;5031960;27;51111;-47
2022/10/17 02:27:20;;;;;;;;;8.67;8.00;;;;;-147.17;100.00;-15917.19;5018638;27;51287;-47
2022/10/17 02:30:04;;;;;;;;;10.33;9.67;;;;;-147.17;100.00;-15917.19;5071474;27;51285;-47
2022/10/17 02:32:42;;;;;;;;;12.00;10.00;;;;;-147.17;100.00;-15917.19;4994956;27;51092;-47
2022/10/17 02:35:12;;;;;;;;;9.67;9.00;;;;;-147.17;100.00;-15917.19;4990323;27;51146;-47
2022/10/17 02:37:42;;;;;;;;;9.33;8.00;;;;;-147.17;100.00;-15917.19;5008080;27;51381;-47
2022/10/17 02:40:11;;;;;;;;;9.67;9.33;;;;;-147.17;100.00;-15917.19;5005096;27;51268;-47
2022/10/17 02:42:37;;;;;;;;;12.33;9.33;;;;;-147.17;100.00;-15917.19;4998379;27;51165;-47
2022/10/17 02:45:04;;;;;;;;;8.33;8.33;;;;;-147.17;100.00;-15917.19;5002287;28;52146;-47
2022/10/17 02:47:38;;;;;;;;;8.33;8.33;;;;;-147.17;100.00;-15917.19;4997594;27;51220;-47
2022/10/17 02:50:05;;;;;;;;;8.00;8.00;;;;;-147.17;100.00;-15917.19;5006861;27;51058;-47
2022/10/17 02:52:49;;;;;;;;;9.67;9.67;;;;;-147.17;100.00;-15917.19;5072815;27;51248;-47
2022/10/17 02:55:24;;;;;;;;;11.00;11.00;;;;;-147.17;100.00;-15917.19;4996988;27;51905;-48
2022/10/17 02:57:53;;;;;;;;;11.33;11.00;;;;;-147.17;100.00;-15917.19;4993533;27;51376;-48
2022/10/17 03:00:21;;;;;;;;;10.00;10.00;;;;;-147.17;100.00;-15917.19;5009118;28;51249;-49
2022/10/17 03:02:49;;;;;;;;;8.00;8.00;;;;;-147.17;100.00;-15917.19;5008109;28;51201;-47
2022/10/17 03:05:22;;;;;;;;;12.00;12.00;;;;;-147.17;100.00;-15917.19;5008846;27;51994;-48
2022/10/17 03:07:47;;;;;;;;;11.00;10.75;;;;;-147.17;100.00;-15917.19;5008945;27;51184;-47
2022/10/17 03:10:13;;;;;;;;;11.33;11.33;;;;;-147.17;100.00;-15917.19;5000073;27;51176;-49
2022/10/17 03:12:38;;;;;;;;;11.33;11.33;;;;;-147.17;100.00;-15917.19;5002612;27;51204;-47
2022/10/17 03:15:04;;;;;;;;;12.67;11.67;;;;;-147.17;100.00;-15917.19;5018087;27;63094;-47
2022/10/17 03:17:30;;;;;;;;;9.00;9.00;;;;;-147.17;100.00;-15917.19;4999862;27;51170;-48
2022/10/17 03:19:55;;;;;;;;;13.00;12.00;;;;;-147.17;100.00;-15917.19;5029801;27;51454;-47
2022/10/17 03:22:21;;;;;;;;;9.00;9.00;;;;;-147.17;100.00;-15917.19;5017875;27;51010;-47
2022/10/17 03:24:46;;;;;;;;;9.67;9.67;;;;;-147.17;100.00;-15917.19;4997052;28;51131;-48
2022/10/17 03:27:11;;;;;;;;;11.00;10.00;;;;;-147.17;100.00;-15917.19;5005734;27;62106;-49
2022/10/17 03:29:37;;;;;;;;;9.00;9.00;;;;;-147.17;100.00;-15917.19;4997255;27;51638;-48
2022/10/17 03:32:02;;;;;;;;;9.33;9.33;;;;;-147.17;100.00;-15917.19;5003890;27;50952;-49
2022/10/17 03:34:28;;;;;;;;;9.67;9.67;;;;;-147.17;100.00;-15917.19;4996425;27;51830;-48
2022/10/17 03:36:53;;;;;;;;;10.33;9.00;;;;;-147.17;100.00;-15917.19;5002751;27;50905;-47
2022/10/17 03:39:18;;;;;;;;;10.00;9.33;;;;;-147.17;100.00;-15917.19;5000570;27;51139;-47
2022/10/17 03:41:44;;;;;;;;;11.00;9.00;;;;;-147.17;100.00;-15917.19;4998490;27;51119;-48
2022/10/17 03:44:09;;;;;;;;;10.33;10.00;;;;;-147.17;100.00;-15917.19;5002544;27;51766;-47
2022/10/17 03:46:34;;;;;;;;;10.33;9.67;;;;;-147.17;100.00;-15917.19;5013303;27;51793;-48
2022/10/17 03:49:00;;;;;;;;;11.00;11.00;;;;;-147.17;100.00;-15917.19;5003663;27;51004;-46
2022/10/17 03:51:25;;;;;;;;;9.67;9.67;;;;;-147.17;100.00;-15917.19;5007345;27;51099;-46
2022/10/17 03:53:50;;;;;;;;;11.67;11.00;;;;;-147.17;100.00;-15917.19;4999375;27;51677;-48
2022/10/17 03:56:17;;;;;;;;;10.00;9.33;;;;;-147.17;100.00;-15917.19;5006798;27;50951;-47
2022/10/17 03:58:43;;;;;;;;;12.67;12.00;;;;;-147.17;100.00;-15917.19;5000773;28;50983;-46
2022/10/17 04:01:11;;;;;;;;;9.33;9.00;;;;;-147.17;100.00;-15917.19;5003581;27;51131;-47
2022/10/17 04:03:37;;;;;;;;;8.00;8.00;;;;;-147.17;100.00;-15917.19;5005200;27;52508;-45
2022/10/17 04:06:03;;;;;;;;;10.00;10.00;;;;;-147.17;100.00;-15917.19;5004133;27;51120;-49
2022/10/17 04:08:29;;;;;;;;;8.67;8.67;;;;;-147.17;100.00;-15917.19;5004386;27;51081;-48
2022/10/17 04:10:59;;;;;;;;;10.00;10.00;;;;;-147.17;100.00;-15917.19;5005189;27;51278;-50
2022/10/17 04:13:25;;;;;;;;;10.00;9.00;;;;;-147.17;100.00;-15917.19;4989678;27;52309;-49
2022/10/17 04:16:01;;;;;;;;;9.33;9.00;;;;;-147.17;100.00;-15917.19;4996121;27;51366;-48
2022/10/17 04:18:27;;;;;;;;;7.00;7.00;;;;;-147.17;100.00;-15917.19;4990345;27;51164;-48
2022/10/17 04:20:52;;;;;;;;;9.00;8.33;;;;;-147.17;100.00;-15917.19;4993009;27;51381;-48
2022/10/17 04:23:19;;;;;;;;;10.00;10.00;;;;;-147.17;100.00;-15917.19;5008066;27;51004;-48
2022/10/17 04:25:44;;;;;;;;;9.33;9.33;;;;;-147.17;100.00;-15917.19;5007168;27;51022;-49
2022/10/17 04:28:09;;;;;;;;;8.00;8.00;;;;;-147.17;100.00;-15917.19;5004301;28;51007;-52
2022/10/17 04:30:35;;;;;;;;;8.67;8.67;;;;;-147.17;100.00;-15917.19;5012193;27;51246;-48
2022/10/17 04:33:00;;;;;;;;;11.33;9.33;;;;;-147.17;100.00;-15917.19;5001581;27;51905;-50
2022/10/17 04:35:26;;;;;;;;;9.67;8.67;;;;;-147.17;100.00;-15917.19;5010991;28;50986;-48
2022/10/17 04:37:51;;;;;;;;;9.00;9.00;;;;;-147.17;100.00;-15917.19;5001562;28;51154;-48
2022/10/17 04:40:16;;;;;;;;;9.67;9.00;;;;;-147.17;100.00;-15917.19;4992955;27;51071;-48
2022/10/17 04:42:41;;;;;;;;;9.33;9.33;;;;;-147.17;100.00;-15917.19;5026069;27;51376;-50
2022/10/17 04:45:07;;;;;;;;;9.00;8.00;;;;;-147.17;100.00;-15917.19;5000827;27;51183;-46
2022/10/17 04:47:33;;;;;;;;;9.00;8.33;;;;;-147.17;100.00;-15917.19;5065603;27;51293;-49
2022/10/17 04:49:58;;;;;;;;;12.00;10.33;;;;;-147.17;100.00;-15917.19;5002591;28;51364;-49
2022/10/17 04:52:24;;;;;;;;;8.33;7.67;;;;;-147.17;100.00;-15917.19;5003880;27;51865;-47
2022/10/17 04:54:50;;;;;;;;;10.00;10.00;;;;;-147.17;100.00;-15917.19;5003343;27;51306;-47
2022/10/17 04:57:15;;;;;;;;;8.33;8.33;;;;;-147.17;100.00;-15917.19;4998798;27;51305;-47
2022/10/17 04:59:41;;;;;;;;;11.00;8.67;;;;;-147.17;100.00;-15917.19;5000105;27;51209;-47
2022/10/17 05:02:06;;;;;;;;;8.67;8.67;;;;;-147.17;100.00;-15917.19;5005079;27;52024;-48
2022/10/17 05:04:31;;;;;;;;;11.00;10.00;;;;;-147.17;100.00;-15917.19;5016697;27;50916;-48
2022/10/17 05:06:56;;;;;;;;;8.33;8.33;;;;;-147.17;100.00;-15917.19;5007532;28;51372;-46
2022/10/17 05:09:22;;;;;;;;;10.33;8.00;;;;;-147.17;100.00;-15917.19;5011009;28;51065;-46
2022/10/17 05:11:47;;;;;;;;;9.67;9.00;;;;;-147.17;100.00;-15917.19;5010196;28;51850;-47
2022/10/17 05:14:14;;;;;;;;;8.33;8.00;;;;;-147.17;100.00;-15917.19;4994215;28;51223;-46
2022/10/17 05:16:39;;;;;;;;;10.33;10.00;;;;;-147.17;100.00;-15917.19;5004711;27;51075;-47
2022/10/17 05:19:04;;;;;;;;;12.67;11.67;;;;;-147.17;100.00;-15917.19;5025389;27;53563;-47
2022/10/17 05:21:31;;;;;;;;;8.67;8.67;;;;;-147.17;100.00;-15917.19;5001915;27;53022;-47
2022/10/17 05:23:57;;;;;;;;;10.00;10.00;;;;;-147.17;100.00;-15917.19;5006491;27;52196;-47
2022/10/17 05:26:23;;;;;;;;;8.00;7.67;;;;;-147.17;100.00;-15917.19;5013932;27;51180;-47
2022/10/17 05:28:51;;;;;;;;;10.33;10.33;;;;;-147.17;100.00;-15917.19;5028121;27;51486;-47
2022/10/17 05:31:16;;;;;;;;;8.00;8.00;;;;;-147.17;100.00;-15917.19;5020132;27;51751;-46
2022/10/17 05:33:42;;;;;;;;;9.33;9.33;;;;;-147.17;100.00;-15917.19;5004053;27;51288;-48
2022/10/17 05:36:07;;;;;;;;;9.67;9.00;;;;;-147.17;100.00;-15917.19;4998240;27;51210;-47
2022/10/17 05:38:33;;;;;;;;;10.67;10.67;;;;;-147.17;100.00;-15917.19;4995346;27;51196;-47
2022/10/17 05:40:59;;;;;;;;;10.50;10.50;;;;;-147.17;100.00;-15917.19;5002653;27;51703;-48
2022/10/17 05:43:25;;;;;;;;;12.00;11.00;;;;;-147.17;100.00;-15917.19;5007430;27;51299;-48
2022/10/17 05:45:51;;;;;;;;;9.00;9.00;;;;;-147.17;100.00;-15917.19;5037308;27;51166;-48
2022/10/17 05:48:16;;;;;;;;;11.00;10.67;;;;;-147.17;100.00;-15917.19;4997977;27;51182;-48
2022/10/17 05:50:41;;;;;;;;;12.33;11.67;;;;;-147.17;100.00;-15917.19;5007346;27;51755;-46
2022/10/17 05:53:07;;;;;;;;;16.25;16.00;;;;;-147.17;100.00;-15917.19;5006492;27;51138;-48
2022/10/17 05:55:32;;;;;;;;;10.00;9.00;;;;;-147.17;100.00;-15917.19;5062347;27;51733;-48
2022/10/17 05:57:59;;;;;;;;;11.00;10.33;;;;;-147.17;100.00;-15917.19;5000452;27;51691;-48
2022/10/17 06:00:24;;;;;;;;;12.33;10.33;;;;;-147.17;100.00;-15917.19;5006082;27;51215;-49
2022/10/17 06:02:50;;;;;;;;;12.67;12.00;;;;;-147.17;100.00;-15917.19;5008025;27;51050;-49
2022/10/17 06:05:16;;;;;;;;;12.00;12.00;;;;;-147.17;100.00;-15917.19;5010522;27;51138;-48
2022/10/17 06:07:41;;;;;;;;;10.67;9.00;;;;;-147.17;100.00;-15917.19;5004528;28;51333;-48
2022/10/17 06:10:07;;;;;;;;;12.00;10.67;;;;;-147.17;100.00;-15917.19;5005811;27;51031;-48
2022/10/17 06:12:32;;;;;;;;;12.00;12.00;;;;;-147.17;100.00;-15917.19;5006169;27;51201;-49
2022/10/17 06:14:57;;;;;;;;;10.67;10.67;;;;;-147.17;100.00;-15917.19;4993900;28;51063;-48
2022/10/17 06:17:23;;;;;;;;;9.33;9.33;;;;;-147.17;100.00;-15917.19;5004233;27;51176;-47
2022/10/17 06:19:48;;;;;;;;;10.00;10.00;;;;;-147.17;100.00;-15917.19;5006712;27;50940;-47
2022/10/17 06:22:14;;;;;;;;;10.67;10.67;;;;;-147.17;100.00;-15917.19;5005078;27;51239;-48
2022/10/17 06:24:39;;;;;;;;;15.33;13.00;;;;;-147.17;100.00;-15917.19;5063993;27;53637;-49
2022/10/17 06:27:04;;;;;;;;;12.67;12.00;;;;;-147.17;100.00;-15917.19;4998875;27;51308;-48
2022/10/17 06:29:30;;;;;;;;;14.33;13.67;;;;;-147.17;100.00;-15917.19;4994403;27;52099;-49
2022/10/17 06:31:55;;;;;;;;;14.67;14.00;;;;;-147.17;100.00;-15917.19;5008287;28;51119;-49
2022/10/17 06:34:21;;;;;;;;;11.33;11.00;;;;;-147.17;100.00;-15917.19;5007833;28;51231;-47
2022/10/17 06:36:46;;;;;;;;;12.67;12.00;;;;;-147.17;100.00;-15917.19;5008441;27;51140;-48
2022/10/17 06:39:12;;;;;;;;;15.00;14.00;;;;;-147.17;100.00;-15917.19;5008427;28;51733;-48
2022/10/17 06:41:39;;;;;;;;;11.00;11.00;;;;;-147.17;100.00;-15917.19;5009772;28;51161;-47
2022/10/17 06:44:09;;;;;;;;;12.75;11.50;;;;;-147.17;100.00;-15917.19;5009892;28;51327;-47
2022/10/17 06:46:35;;;;;;;;;13.00;12.00;;;;;-147.17;100.00;-15917.19;5005030;27;51171;-48
2022/10/17 06:49:01;;;;;;;;;10.33;10.33;;;;;-147.17;100.00;-15917.19;5009876;27;51001;-47
2022/10/17 06:51:26;;;;;;;;;12.00;12.00;;;;;-147.17;100.00;-15917.19;5008903;27;51216;-47
2022/10/17 06:53:51;;;;;;;;;11.00;10.67;;;;;-147.17;100.00;-15917.19;5078694;27;51342;-47
2022/10/17 06:56:18;;;;;;;;;12.00;12.00;;;;;-147.17;100.00;-15917.19;5010586;28;51095;-47
2022/10/17 06:58:44;;;;;;;;;11.00;11.00;;;;;-147.17;100.00;-15917.19;5009579;28;51867;-48
2022/10/17 07:01:11;;;;;;;;;12.33;11.67;;;;;-147.17;100.00;-15917.19;5078124;27;51179;-49
2022/10/17 07:03:37;;;;;;;;;10.00;10.00;;;;;-147.17;100.00;-15917.19;5008763;27;51337;-49
2022/10/17 07:06:03;;;;;;;;;14.67;14.67;;;;;-147.17;100.00;-15917.19;5009743;27;51252;-49
2022/10/17 07:08:29;;;;;;;;;13.67;12.67;;;;;-147.17;100.00;-15917.19;5009639;28;52033;-48
2022/10/17 07:10:55;;;;;;;;;13.00;12.00;;;;;-147.17;100.00;-15917.19;5009707;27;51049;-48
2022/10/17 07:13:21;;;;;;;;;14.00;13.33;;;;;-147.17;100.00;-15917.19;5010063;28;51148;-48
2022/10/17 07:15:47;;;;;;;;;15.00;12.67;;;;;-147.17;100.00;-15917.19;5004492;27;50951;-48
2022/10/17 07:18:12;;;;;;;;;10.33;10.33;;;;;-147.17;100.00;-15917.19;5009349;28;51203;-48
2022/10/17 07:20:39;;;;;;;;;12.00;12.00;;;;;-147.17;100.00;-15917.19;5009723;28;50886;-48
2022/10/17 07:23:04;;;;;;;;;16.00;15.00;;;;;-147.17;100.00;-15917.19;5009876;28;51040;-49
2022/10/17 07:25:29;;;;;;;;;17.67;16.00;;;;;-147.17;100.00;-15917.19;5009850;28;50941;-49
2022/10/17 07:27:55;;;;;;;;;15.00;14.67;;;;;-147.17;100.00;-15917.19;5009692;28;53400;-48
2022/10/17 07:30:21;;;;;;;;;13.67;13.67;;;;;-147.17;100.00;-15917.19;5077576;27;51126;-47
2022/10/17 07:32:47;;;;;;;;;12.33;11.67;;;;;-147.17;100.00;-15917.19;5077868;27;51159;-47
2022/10/17 07:35:13;;;;;;;;;12.67;12.33;;;;;-147.17;100.00;-15917.19;5009284;28;50931;-47
2022/10/17 07:37:38;;;;;;;;;9.33;9.33;;;;;-147.17;100.00;-15917.19;5008792;27;51914;-47
2022/10/17 07:40:06;;;;;;;;;10.33;10.33;;;;;-147.17;100.00;-15917.19;5077623;27;50966;-48
2022/10/17 07:42:32;;;;;;;;;10.67;10.67;;;;;-147.17;100.00;-15917.19;5009717;28;51228;-49
2022/10/17 07:44:58;;;;;;;;;5.67;5.00;;;;;-147.17;100.00;-15917.19;5005989;27;50975;-49
2022/10/17 07:47:24;;;;;;;;;12.67;12.33;;;;;-147.17;100.00;-15917.19;5068798;27;53030;-49
2022/10/17 07:49:49;;;;;;;;;15.67;15.00;;;;;-147.17;100.00;-15917.19;5009117;27;50978;-49
2022/10/17 07:52:16;;;;;;;;;11.33;10.33;;;;;-147.17;100.00;-15917.19;5008987;28;51097;-49
2022/10/17 07:54:42;;;;;;;;;10.33;10.33;;;;;-147.17;100.00;-15917.19;5009441;27;51204;-48
2022/10/17 07:57:07;;;;;;;;;12.00;11.67;;;;;-147.17;100.00;-15917.19;5008930;28;51894;-47
2022/10/17 07:59:33;;;;;;;;;12.33;11.67;;;;;-147.17;100.00;-15917.19;5009042;27;51040;-50
2022/10/17 08:01:59;;;;;;;;;10.67;10.00;;;;;-147.17;100.00;-15917.19;5008903;28;51033;-49
2022/10/17 08:04:25;;;;;;;;;10.33;9.67;;;;;-147.17;100.00;-15917.19;5009464;27;50932;-48
2022/10/17 08:06:51;;;;;;;;;10.00;9.33;;;;;-147.17;100.00;-15917.19;5008785;28;52953;-49
2022/10/17 08:09:17;;;;;;;;;10.67;10.00;;;;;-147.17;100.00;-15917.19;5009116;28;51042;-48
2022/10/17 08:11:45;;;;;;;;;13.33;12.00;;;;;-147.17;100.00;-15917.19;5009122;27;51183;-47
2022/10/17 08:14:11;;;;;;;;;10.33;10.33;;;;;-147.17;100.00;-15917.19;5009509;27;51151;-49
2022/10/17 08:16:37;;;;;;;;;10.33;10.33;;;;;-147.17;100.00;-15917.19;5060518;27;52665;-47
2022/10/17 08:19:03;;;;;;;;;9.00;9.00;;;;;-147.17;100.00;-15917.19;4997000;27;50954;-50
2022/10/17 08:21:29;;;;;;;;;9.33;9.00;;;;;-147.17;100.00;-15917.19;4989373;28;50948;-48
2022/10/17 08:23:54;;;;;;;;;9.00;8.00;;;;;-147.17;100.00;-15917.19;4989508;28;50887;-48
2022/10/17 08:26:20;;;;;;;;;13.33;11.67;;;;;-147.17;100.00;-15917.19;4997288;27;51206;-49
2022/10/17 08:28:45;;;;;;;;;11.67;11.33;;;;;-147.17;100.00;-15917.19;5008911;27;51199;-48
2022/10/17 08:31:17;;;;;;;;;10.33;9.00;;;;;-147.17;100.00;-15917.19;5008225;27;50944;-49
2022/10/17 08:33:43;;;;;;;;;9.67;9.67;;;;;-147.17;100.00;-15917.19;5009013;27;51092;-46
2022/10/17 08:36:11;;;;;;;;;10.67;10.67;;;;;-147.17;100.00;-15917.19;5008235;28;52103;-49
2022/10/17 08:38:38;;;;;;;;;11.00;11.00;;;;;-147.17;100.00;-15917.19;5008289;27;51085;-48
2022/10/17 08:41:10;;;;;;;;;14.00;12.67;;;;;-147.17;100.00;-15917.19;5008823;28;51276;-49
2022/10/17 08:43:54;;;;;;;;;16.00;16.00;;;;;-147.17;100.00;-15917.19;5009094;28;51015;-49
2022/10/17 08:46:19;;;;;;;;;11.00;10.33;;;;;-147.17;100.00;-15917.19;5006971;27;51145;-48
2022/10/17 08:48:48;;;;;;;;;11.33;11.33;;;;;-147.17;100.00;-15917.19;5004604;27;50926;-47
2022/10/17 08:51:25;;;;;;;;;10.00;10.00;;;;;-147.17;100.00;-15917.19;5008024;27;51155;-48
2022/10/17 08:54:01;;;;;;;;;11.00;9.00;;;;;-147.17;100.00;-15917.19;5076946;27;52039;-47
2022/10/17 08:56:34;;;;;;;;;9.67;9.67;;;;;-147.17;100.00;-15917.19;5008054;27;50876;-50
2022/10/17 08:59:00;;;;;;;;;10.67;9.00;;;;;-147.17;100.00;-15917.19;5008400;27;51172;-49
2022/10/17 09:01:36;;;;;;;;;10.00;9.67;;;;;-147.17;100.00;-15917.19;5004054;27;51057;-47
2022/10/17 09:04:14;;;;;;;;;8.33;8.33;;;;;-147.17;100.00;-15917.19;5003609;28;51302;-48
2022/10/17 09:06:48;;;;;;;;;11.00;10.67;;;;;-147.17;100.00;-15917.19;5007885;28;51744;-48
2022/10/17 09:09:35;;;;;;;;;8.33;7.33;;;;;-147.17;100.00;-15917.19;5007993;27;50933;-51
2022/10/17 09:12:23;;;;;;;;;12.00;11.33;;;;;-147.17;100.00;-15917.19;5008294;27;51048;-47
2022/10/17 09:15:00;;;;;;;;;13.33;13.33;;;;;-147.17;100.00;-15917.19;5027389;27;51122;-48
2022/10/17 09:17:38;;;;;;;;;10.00;10.00;;;;;-147.17;100.00;-15917.19;5010698;27;53045;-47
2022/10/17 09:20:11;;;;;;;;;8.67;8.67;;;;;-147.17;100.00;-15917.19;5010443;27;51092;-48
2022/10/17 09:22:52;;;;;;;;;8.00;8.00;;;;;-147.17;100.00;-15917.19;5011147;27;50923;-48
2022/10/17 09:25:19;;;;;;;;;9.00;9.00;;;;;-147.17;100.00;-15917.19;5011321;27;51249;-50
2022/10/17 09:27:52;;;;;;;;;9.67;8.67;;;;;-147.17;100.00;-15917.19;5011169;28;51006;-49
2022/10/17 09:30:36;;;;;;;;;7.67;7.67;;;;;-147.17;100.00;-15917.19;5011246;28;51048;-48
2022/10/17 09:33:27;;;;;;;;;13.00;11.33;;;;;-147.17;100.00;-15917.19;5012203;27;51204;-47
2022/10/17 09:35:53;;;;;;;;;11.33;9.67;;;;;-147.17;100.00;-15917.19;5010899;28;50995;-47
2022/10/17 09:38:22;;;;;;;;;12.67;11.33;;;;;-147.17;100.00;-15917.19;5010375;27;51962;-48
2022/10/17 09:40:54;;;;;;;;;9.33;9.33;;;;;-147.17;100.00;-15917.19;5010795;27;51033;-50
2022/10/17 09:43:21;;;;;;;;;10.67;9.00;;;;;-147.17;100.00;-15917.19;5011202;27;51063;-49
2022/10/17 09:46:08;;;;;;;;;11.00;11.00;;;;;-147.17;100.00;-15917.19;5010736;27;51375;-48
2022/10/17 09:48:52;;;;;;;;;12.33;12.33;;;;;-147.17;100.00;-15917.19;5010900;28;51063;-48
2022/10/17 09:51:18;;;;;;;;;10.00;9.00;;;;;-147.17;100.00;-15917.19;5010604;27;51002;-48
2022/10/17 09:53:50;;;;;;;;;9.00;9.00;;;;;-147.17;100.00;-15917.19;5010767;27;51092;-50
2022/10/17 09:56:17;;;;;;;;;12.67;12.33;;;;;-147.17;100.00;-15917.19;5011082;27;51227;-49
2022/10/17 09:58:47;;;;;;;;;11.33;10.00;;;;;-147.17;100.00;-15917.19;5010470;28;51717;-48
2022/10/17 10:01:19;;;;;;;;;13.00;13.00;;;;;-147.17;100.00;-15917.19;5010598;28;51158;-49
2022/10/17 10:03:45;;;;;;;;;12.33;11.67;;;;;-147.17;100.00;-15917.19;5011099;27;50943;-48
2022/10/17 10:06:13;;;;;;;;;13.67;13.33;;;;;-147.17;100.00;-15917.19;5010720;28;50959;-47
2022/10/17 10:08:57;;;;;;;;;15.33;14.33;;;;;-147.17;100.00;-15917.19;5010506;27;51305;-51
2022/10/17 10:11:46;;;;;;;;;13.00;12.67;;;;;-147.17;100.00;-15917.19;5010896;27;50971;-47
2022/10/17 10:14:23;;;;;;;;;11.33;11.33;;;;;-147.17;100.00;-15917.19;5010552;28;51083;-50
2022/10/17 10:16:52;;;;;;;;;11.00;11.00;;;;;-147.17;100.00;-15917.19;5005978;27;51182;-54
2022/10/17 10:19:31;;;;;;;;;12.33;11.00;;;;;-147.17;100.00;-15917.19;4997186;28;52194;-53
2022/10/17 10:21:59;;;;;;;;;17.33;16.33;;;;;-147.17;100.00;-15917.19;5010541;28;51132;-47
2022/10/17 10:24:26;;;;;;;;;15.00;15.00;;;;;-147.17;100.00;-15917.19;5010675;28;51037;-50
2022/10/17 10:26:54;;;;;;;;;19.00;18.33;;;;;-147.17;100.00;-15917.19;5010526;28;50927;-47
2022/10/17 10:29:31;;;;;;;;;30.00;29.00;;;;;-147.17;100.00;-15917.19;5001230;28;52278;-49
2022/10/17 10:32:21;;;;;;;;;15.67;15.00;;;;;-147.17;100.00;-15917.19;5009169;27;51034;-50
2022/10/17 10:35:12;;;;;;;;;17.67;17.67;;;;;-147.17;100.00;-15917.19;5010316;27;51048;-49
2022/10/17 10:37:42;;;;;;;;;15.00;14.33;;;;;-147.17;100.00;-15917.19;5012737;27;51372;-48
2022/10/17 10:40:14;;;;;;;;;24.00;20.67;;;;;-147.17;100.00;-15917.19;5009718;27;52892;-50
2022/10/17 10:42:40;;;;;;;;;18.33;18.33;;;;;-147.17;100.00;-15917.19;5010036;27;51094;-50
2022/10/17 10:45:14;;;;;;;;;21.33;18.67;;;;;-147.17;100.00;-15917.19;5011277;27;51067;-48
2022/10/17 10:47:51;;;;;;;;;20.33;19.00;;;;;-147.17;100.00;-15917.19;5010510;27;51261;-47
2022/10/17 10:50:28;;;;;;;;;15.00;15.00;;;;;-147.17;100.00;-15917.19;5009660;27;51205;-47
2022/10/17 10:53:26;;;;;;;;;20.67;20.00;;;;;-147.17;100.00;-15917.19;5009647;27;51066;-49
2022/10/17 10:55:55;;;;;;;;;22.00;18.33;;;;;-147.17;100.00;-15917.19;5011503;27;51313;-48
2022/10/17 10:58:47;;;;;;;;;20.00;19.00;;;;;-147.17;100.00;-15917.19;5010171;28;51080;-47
2022/10/17 11:01:30;;;;;;;;;20.00;19.00;;;;;-147.17;100.00;-15917.19;5009233;27;51275;-48
2022/10/17 11:04:32;;;;;;;;;18.33;16.33;;;;;-147.17;100.00;-15917.19;5009932;28;51066;-48